Honghai — XUBU8 — position and weather

sailwx.info

Track history (hours):
 
Tides and Currents Weather Stations Pressure Air Temp Water Temp Dewpoint Dewpoint Depression Visibility Wind Speed Wind Dir Waves Ship Positions

Honghai

Last reported at 2015-Mar-31 10:24 UTC. Time now 2015-Mar-31 11:21 UTC.
Position N 30°09' E 121°48'.

Length 72 m; draft 4.5 m.

Type: Cargo ship. MMSI: 515501000.

Date/timePositionNaut miles runAvg speedWind from/ knotsBaromVisibWave heightAir tempDewpointWater temp
2015-Mar-31 10:24N 30°09' E 121°48'7 8.3
2015-Mar-31 09:32N 30°17' E 121°47'9 9.1
2015-Mar-31 08:33N 30°24' E 121°53'9 8.3
2015-Mar-31 07:31N 30°28' E 122°01'7 7.3
2015-Mar-31 06:33N 30°32' E 122°09'7 6.3
2015-Mar-31 05:29N 30°33' E 122°16'28 6.8
2015-Mar-31 01:20N 30°39' E 122°48'  
2015-Mar-28 21:07N 33°52' E 130°17'6 8.5
2015-Mar-28 20:26N 33°55' E 130°23'16 8.7
2015-Mar-28 18:33N 33°58' E 130°42'219 7.1
2015-Mar-27 11:32N 34°37' E 135°03'7 7.4
2015-Mar-27 10:33N 34°36' E 135°12'8 8.1
2015-Mar-27 09:33N 34°37' E 135°21'4 3.4
2015-Mar-27 08:30N 34°37' E 135°26'0 0.0
2015-Mar-27 07:30N 34°37' E 135°26'0 0.0
2015-Mar-27 06:30N 34°37' E 135°26'0 0.0
2015-Mar-27 05:30N 34°37' E 135°26'0 0.0
2015-Mar-27 04:30N 34°37' E 135°26'0 0.0
2015-Mar-27 03:30N 34°37' E 135°26'0 0.0
2015-Mar-27 02:18N 34°37' E 135°26'0 0.0
2015-Mar-27 01:24N 34°37' E 135°26'0 0.0
2015-Mar-27 00:30N 34°37' E 135°26'0 0.0
2015-Mar-26 23:30N 34°37' E 135°26'0 0.0
2015-Mar-26 22:30N 34°37' E 135°26'0 0.0
2015-Mar-26 21:24N 34°37' E 135°26'0 0.0
2015-Mar-26 20:24N 34°37' E 135°26'0 0.0
2015-Mar-26 19:30N 34°37' E 135°26'0 0.0
2015-Mar-26 18:30N 34°37' E 135°26'0 0.0
2015-Mar-26 17:18N 34°37' E 135°26'0 0.0
2015-Mar-26 16:30N 34°37' E 135°26'0 0.0
2015-Mar-26 15:30N 34°37' E 135°26'0 0.0
2015-Mar-26 14:30N 34°37' E 135°26'0 0.0
2015-Mar-26 13:29N 34°37' E 135°26'0 0.0
2015-Mar-26 12:29N 34°37' E 135°26'0 0.0
2015-Mar-26 11:29N 34°37' E 135°26'0 0.0
2015-Mar-26 10:23N 34°37' E 135°26'0 0.0
2015-Mar-26 09:29N 34°37' E 135°26'0 0.0
2015-Mar-26 08:23N 34°37' E 135°26'0 0.0
2015-Mar-26 07:23N 34°37' E 135°26'0 0.0
2015-Mar-26 06:29N 34°37' E 135°26'0 0.0
2015-Mar-26 05:32N 34°37' E 135°26'3 2.6
2015-Mar-26 04:33N 34°37' E 135°23'0 0.0
2015-Mar-26 03:33N 34°37' E 135°23'0 0.1
2015-Mar-26 02:33N 34°37' E 135°23'0 0.0
2015-Mar-26 01:32N 34°37' E 135°23'8 8.2
2015-Mar-26 00:33N 34°32' E 135°16'8 8.2
2015-Mar-25 23:33N 34°26' E 135°09'13 6.6
2015-Mar-25 21:33N 34°15' E 135°00'7 7.4
2015-Mar-25 20:33N 34°07' E 135°01'  
2015-Mar-23 12:33N 35°06' E 139°41'9 8.8
2015-Mar-23 11:33N 35°14' E 139°46'9 8.8
2015-Mar-23 10:34N 35°22' E 139°42'9 8.8
2015-Mar-23 09:33N 35°30' E 139°48'2 2.4
2015-Mar-23 08:33N 35°31' E 139°45'0 0.0
2015-Mar-23 07:33N 35°31' E 139°45'0 0.0
2015-Mar-23 06:33N 35°31' E 139°45'0 0.0
2015-Mar-23 05:24N 35°31' E 139°45'0 0.0
2015-Mar-23 04:27N 35°31' E 139°45'0 0.0
2015-Mar-23 03:33N 35°31' E 139°45'0 0.0
2015-Mar-23 02:24N 35°31' E 139°45'0 0.0
2015-Mar-23 01:30N 35°31' E 139°45'0 0.0
2015-Mar-23 00:33N 35°31' E 139°45'0 0.0
2015-Mar-22 23:33N 35°31' E 139°45'0 0.0
2015-Mar-22 22:33N 35°31' E 139°45'0 0.0
2015-Mar-22 21:33N 35°31' E 139°45'4 4.3
2015-Mar-22 20:31N 35°27' E 139°43'0 0.0
2015-Mar-22 19:31N 35°27' E 139°43'0 0.0
2015-Mar-22 18:31N 35°27' E 139°43'0 0.0
2015-Mar-22 17:31N 35°27' E 139°43'0 0.1
2015-Mar-22 16:31N 35°27' E 139°43'0 0.0
2015-Mar-22 15:31N 35°27' E 139°43'0 0.0
2015-Mar-22 14:31N 35°27' E 139°43'0 0.0
2015-Mar-22 13:31N 35°27' E 139°43'0 0.0
2015-Mar-22 12:31N 35°27' E 139°43'0 0.0
2015-Mar-22 11:31N 35°27' E 139°43'0 0.0
2015-Mar-22 10:31N 35°27' E 139°43'0 0.0
2015-Mar-22 09:31N 35°27' E 139°43'0 0.0
2015-Mar-22 08:31N 35°27' E 139°43'0 0.0
2015-Mar-22 07:31N 35°27' E 139°43'0 0.0
2015-Mar-22 06:28N 35°27' E 139°43'0 0.0
2015-Mar-22 05:31N 35°27' E 139°43'0 0.0
2015-Mar-22 04:31N 35°27' E 139°43'0 0.1
2015-Mar-22 03:31N 35°27' E 139°43'0 0.0
2015-Mar-22 02:31N 35°27' E 139°43'0 0.1
2015-Mar-22 01:31N 35°27' E 139°43'0 0.0
2015-Mar-22 00:31N 35°27' E 139°43'0 0.0
2015-Mar-21 23:31N 35°27' E 139°43'0 0.0
2015-Mar-21 22:31N 35°27' E 139°43'0 0.0
2015-Mar-21 21:28N 35°27' E 139°43'0 0.1
2015-Mar-21 20:31N 35°27' E 139°43'0 0.0
2015-Mar-21 19:31N 35°27' E 139°43'0 0.1
2015-Mar-21 18:34N 35°27' E 139°43'0 0.0
2015-Mar-21 17:33N 35°27' E 139°43'0 0.0
2015-Mar-21 16:24N 35°27' E 139°43'0 0.0
2015-Mar-21 15:33N 35°27' E 139°43'0 0.0
2015-Mar-21 14:33N 35°27' E 139°43'0 0.0
2015-Mar-21 13:33N 35°27' E 139°43'0 0.0
2015-Mar-21 12:33N 35°27' E 139°43'0 0.0
2015-Mar-21 11:33N 35°27' E 139°43'0 0.0
2015-Mar-21 10:33N 35°27' E 139°43'  
Track history (hours):
 
Tides and Currents Weather Stations Pressure Air Temp Water Temp Dewpoint Dewpoint Depression Visibility Wind Speed Wind Dir Waves Ship Positions

Honghai

Last reported at 2015-Mar-31 10:24 UTC. Time now 2015-Mar-31 11:21 UTC.
Position N 30°09' E 121°48'.

Length 72 m; draft 4.5 m.

Type: Cargo ship. MMSI: 515501000.

Date/timePositionNaut miles runAvg speedWind from/ knotsBaromVisibWave heightAir tempDewpointWater temp
2015-Mar-31 10:24N 30°09' E 121°48'7 8.3
2015-Mar-31 09:32N 30°17' E 121°47'9 9.1
2015-Mar-31 08:33N 30°24' E 121°53'9 8.3
2015-Mar-31 07:31N 30°28' E 122°01'7 7.3
2015-Mar-31 06:33N 30°32' E 122°09'7 6.3
2015-Mar-31 05:29N 30°33' E 122°16'28 6.8
2015-Mar-31 01:20N 30°39' E 122°48'  
2015-Mar-28 21:07N 33°52' E 130°17'6 8.5
2015-Mar-28 20:26N 33°55' E 130°23'16 8.7
2015-Mar-28 18:33N 33°58' E 130°42'219 7.1
2015-Mar-27 11:32N 34°37' E 135°03'7 7.4
2015-Mar-27 10:33N 34°36' E 135°12'8 8.1
2015-Mar-27 09:33N 34°37' E 135°21'4 3.4
2015-Mar-27 08:30N 34°37' E 135°26'0 0.0
2015-Mar-27 07:30N 34°37' E 135°26'0 0.0
2015-Mar-27 06:30N 34°37' E 135°26'0 0.0
2015-Mar-27 05:30N 34°37' E 135°26'0 0.0
2015-Mar-27 04:30N 34°37' E 135°26'0 0.0
2015-Mar-27 03:30N 34°37' E 135°26'0 0.0
2015-Mar-27 02:18N 34°37' E 135°26'0 0.0
2015-Mar-27 01:24N 34°37' E 135°26'0 0.0
2015-Mar-27 00:30N 34°37' E 135°26'0 0.0
2015-Mar-26 23:30N 34°37' E 135°26'0 0.0
2015-Mar-26 22:30N 34°37' E 135°26'0 0.0
2015-Mar-26 21:24N 34°37' E 135°26'0 0.0
2015-Mar-26 20:24N 34°37' E 135°26'0 0.0
2015-Mar-26 19:30N 34°37' E 135°26'0 0.0
2015-Mar-26 18:30N 34°37' E 135°26'0 0.0
2015-Mar-26 17:18N 34°37' E 135°26'0 0.0
2015-Mar-26 16:30N 34°37' E 135°26'0 0.0
2015-Mar-26 15:30N 34°37' E 135°26'0 0.0
2015-Mar-26 14:30N 34°37' E 135°26'0 0.0
2015-Mar-26 13:29N 34°37' E 135°26'0 0.0
2015-Mar-26 12:29N 34°37' E 135°26'0 0.0
2015-Mar-26 11:29N 34°37' E 135°26'0 0.0
2015-Mar-26 10:23N 34°37' E 135°26'0 0.0
2015-Mar-26 09:29N 34°37' E 135°26'0 0.0
2015-Mar-26 08:23N 34°37' E 135°26'0 0.0
2015-Mar-26 07:23N 34°37' E 135°26'0 0.0
2015-Mar-26 06:29N 34°37' E 135°26'0 0.0
2015-Mar-26 05:32N 34°37' E 135°26'3 2.6
2015-Mar-26 04:33N 34°37' E 135°23'0 0.0
2015-Mar-26 03:33N 34°37' E 135°23'0 0.1
2015-Mar-26 02:33N 34°37' E 135°23'0 0.0
2015-Mar-26 01:32N 34°37' E 135°23'8 8.2
2015-Mar-26 00:33N 34°32' E 135°16'8 8.2
2015-Mar-25 23:33N 34°26' E 135°09'13 6.6
2015-Mar-25 21:33N 34°15' E 135°00'7 7.4
2015-Mar-25 20:33N 34°07' E 135°01'  
2015-Mar-23 12:33N 35°06' E 139°41'9 8.8
2015-Mar-23 11:33N 35°14' E 139°46'9 8.8
2015-Mar-23 10:34N 35°22' E 139°42'9 8.8
2015-Mar-23 09:33N 35°30' E 139°48'2 2.4
2015-Mar-23 08:33N 35°31' E 139°45'0 0.0
2015-Mar-23 07:33N 35°31' E 139°45'0 0.0
2015-Mar-23 06:33N 35°31' E 139°45'0 0.0
2015-Mar-23 05:24N 35°31' E 139°45'0 0.0
2015-Mar-23 04:27N 35°31' E 139°45'0 0.0
2015-Mar-23 03:33N 35°31' E 139°45'0 0.0
2015-Mar-23 02:24N 35°31' E 139°45'0 0.0
2015-Mar-23 01:30N 35°31' E 139°45'0 0.0
2015-Mar-23 00:33N 35°31' E 139°45'0 0.0
2015-Mar-22 23:33N 35°31' E 139°45'0 0.0
2015-Mar-22 22:33N 35°31' E 139°45'0 0.0
2015-Mar-22 21:33N 35°31' E 139°45'4 4.3
2015-Mar-22 20:31N 35°27' E 139°43'0 0.0
2015-Mar-22 19:31N 35°27' E 139°43'0 0.0
2015-Mar-22 18:31N 35°27' E 139°43'0 0.0
2015-Mar-22 17:31N 35°27' E 139°43'0 0.1
2015-Mar-22 16:31N 35°27' E 139°43'0 0.0
2015-Mar-22 15:31N 35°27' E 139°43'0 0.0
2015-Mar-22 14:31N 35°27' E 139°43'0 0.0
2015-Mar-22 13:31N 35°27' E 139°43'0 0.0
2015-Mar-22 12:31N 35°27' E 139°43'0 0.0
2015-Mar-22 11:31N 35°27' E 139°43'0 0.0
2015-Mar-22 10:31N 35°27' E 139°43'0 0.0
2015-Mar-22 09:31N 35°27' E 139°43'0 0.0
2015-Mar-22 08:31N 35°27' E 139°43'0 0.0
2015-Mar-22 07:31N 35°27' E 139°43'0 0.0
2015-Mar-22 06:28N 35°27' E 139°43'0 0.0
2015-Mar-22 05:31N 35°27' E 139°43'0 0.0
2015-Mar-22 04:31N 35°27' E 139°43'0 0.1
2015-Mar-22 03:31N 35°27' E 139°43'0 0.0
2015-Mar-22 02:31N 35°27' E 139°43'0 0.1
2015-Mar-22 01:31N 35°27' E 139°43'0 0.0
2015-Mar-22 00:31N 35°27' E 139°43'0 0.0
2015-Mar-21 23:31N 35°27' E 139°43'0 0.0
2015-Mar-21 22:31N 35°27' E 139°43'0 0.0
2015-Mar-21 21:28N 35°27' E 139°43'0 0.1
2015-Mar-21 20:31N 35°27' E 139°43'0 0.0
2015-Mar-21 19:31N 35°27' E 139°43'0 0.1
2015-Mar-21 18:34N 35°27' E 139°43'0 0.0
2015-Mar-21 17:33N 35°27' E 139°43'0 0.0
2015-Mar-21 16:24N 35°27' E 139°43'0 0.0
2015-Mar-21 15:33N 35°27' E 139°43'0 0.0
2015-Mar-21 14:33N 35°27' E 139°43'0 0.0
2015-Mar-21 13:33N 35°27' E 139°43'0 0.0
2015-Mar-21 12:33N 35°27' E 139°43'0 0.0
2015-Mar-21 11:33N 35°27' E 139°43'0 0.0
2015-Mar-21 10:33N 35°27' E 139°43'  

Dump ship's entire track history